DW2431 Weather Reports


Display with metric or nautical units.
time (UTC)temp
F
wind
direction
speed
MPH
gust
MPH
rain 1hr
in
rain 24hr
in
rain mn
in
humidity
%
barometer
mb
20180922054847 31 139 3.0 5.0 0.00 0.00 0.00 91 1015.3
20180922053348 31 139 3.0 5.0 0.00 0.00 0.00 91 1015.2
20180922051847 30 139 4.0 7.0 0.00 0.00 0.00 91 1015.0
20180922050342 30 139 3.0 5.0 0.00 0.00 0.00 90 1015.0
20180922044840 30 139 3.0 4.0 0.00 0.00 0.00 90 1014.8
20180922043340 30 139 2.0 4.0 0.00 0.00 0.00 90 1014.9
20180922041837 30 139 2.0 4.0 0.00 0.00 0.00 90 1014.8
20180922040336 30 139 2.0 4.0 0.00 0.00 0.00 89 1014.8
20180922034838 30 139 2.0 4.0 0.00 0.00 0.00 89 1014.8
20180922033339 30 139 2.0 3.0 0.00 0.00 0.00 90 1014.7
20180922031838 30 139 2.0 3.0 0.00 0.00 0.00 88 1014.7
20180922030334 30 139 2.0 3.0 0.00 0.00 0.00 88 1014.8
20180922024833 30 139 3.0 5.0 0.00 0.00 0.00 87 1014.8
20180922023331 30 139 2.0 3.0 0.00 0.00 0.00 87 1014.8
20180922021830 30 139 1.0 3.0 0.00 0.00 0.00 86 1014.7
20180922020331 30 139 2.0 3.0 0.00 0.00 0.00 85 1014.8
20180922014826 31 139 2.0 4.0 0.00 0.00 0.00 84 1014.8
20180922013324 32 139 3.0 4.0 0.00 0.00 0.00 83 1014.8
20180922011822 33 139 0.0 2.0 0.00 0.00 0.00 84 1014.7
20180922010317 33 139 0.0 2.0 0.00 0.00 0.00 83 1014.6
20180922004816 33 139 0.0 2.0 0.00 0.00 0.00 83 1014.4
20180922003314 33 139 0.0 2.0 0.00 0.00 0.00 83 1014.4
20180922001812 34 139 0.0 3.0 0.00 0.00 0.00 82 1014.3
20180922000311 34 139 0.0 5.0 0.00 0.00 0.00 83 1014.2
20180921234811 33 144 0.0 3.0 0.00 0.00 0.00 83 1014.1
20180921233308 33 144 0.0 2.0 0.00 0.00 0.00 83 1014.0
20180921231806 33 144 3.0 4.0 0.00 0.00 0.00 82 1013.7
20180921230307 33 144 0.0 2.0 0.00 0.00 0.00 82 1013.5
20180921224806 34 144 1.0 4.0 0.00 0.00 0.00 81 1013.5
20180921223305 35 135 3.0 6.0 0.00 0.00 0.00 81 1013.6
20180921221806 35 79 2.0 4.0 0.00 0.00 0.00 81 1013.6
20180921220304 35 79 0.0 3.0 0.00 0.00 0.00 81 1013.4
20180921214803 35 79 0.0 0.0 0.00 0.00 0.00 79 1013.5
20180921213302 36 79 0.0 4.0 0.00 0.00 0.00 79 1013.4
20180921211801 36 79 1.0 6.0 0.00 0.00 0.00 79 1013.5
20180921210301 36 67 3.0 6.0 0.00 0.00 0.00 81 1013.6
20180921204758 35 58 3.0 6.0 0.00 0.00 0.00 80 1013.5
20180921203259 36 54 2.0 5.0 0.00 0.00 0.00 79 1013.4
20180921201759 37 50 1.0 5.0 0.00 0.00 0.00 80 1013.4
20180921200256 37 50 2.0 5.0 0.00 0.00 0.00 80 1013.3
20180921194759 37 29 3.0 5.0 0.00 0.00 0.00 80 1013.2
20180921193253 38 17 2.0 11.0 0.00 0.00 0.00 79 1013.1
20180921191753 38 44 3.0 12.0 0.00 0.00 0.00 78 1013.0
20180921190251 39 20 10.0 14.0 0.00 0.00 0.00 78 1012.9
20180921184753 39 49 9.0 16.0 0.00 0.00 0.00 77 1012.9
20180921183252 40 42 6.0 16.0 0.00 0.00 0.00 77 1012.8
20180921181751 40 17 9.0 15.0 0.00 0.00 0.00 76 1012.6
20180921180248 41 355 12.0 20.0 0.00 0.00 0.00 75 1012.5
20180921174745 41 17 11.0 19.0 0.00 0.00 0.00 75 1012.4
20180921173250 41 346 14.0 20.0 0.00 0.00 0.00 74 1012.2
20180921171743 40 15 13.0 22.0 0.00 0.00 0.00 75 1012.2
20180921170326 41 13 8.0 17.0 0.00 0.00 0.00 75 1012.2
20180921164742 40 12 10.0 16.0 0.00 0.00 0.00 74 1012.3
20180921163242 40 19 13.0 22.0 0.00 0.00 0.00 74 1012.1
20180921161740 41 5 14.0 21.0 0.00 0.00 0.00 73 1012.1
20180921160239 41 19 14.0 22.0 0.00 0.00 0.00 74 1012.0
20180921154738 40 355 14.0 19.0 0.00 0.00 0.00 74 1012.0
20180921153238 41 5 12.0 20.0 0.00 0.00 0.00 73 1012.0
20180921151736 41 30 12.0 22.0 0.00 0.00 0.00 74 1011.9
20180921150236 40 21 15.0 22.0 0.00 0.00 0.00 72 1011.9
20180921144735 41 18 10.0 22.0 0.00 0.00 0.00 73 1011.8
20180921143235 42 31 17.0 26.0 0.00 0.00 0.00 71 1011.5
20180921141734 41 29 15.0 23.0 0.00 0.00 0.00 71 1011.7
20180921140231 41 18 14.0 24.0 0.00 0.00 0.00 72 1011.6
20180921134735 40 360 13.0 21.0 0.00 0.00 0.00 74 1011.7
20180921133226 40 5 12.0 20.0 0.00 0.00 0.00 73 1011.8
20180921131725 40 5 15.0 20.0 0.00 0.00 0.00 73 1011.7
20180921130225 40 11 13.0 19.0 0.00 0.00 0.00 73 1011.7
20180921124723 40 22 13.0 25.0 0.00 0.00 0.00 72 1011.5
20180921123219 40 5 12.0 17.0 0.00 0.00 0.00 75 1011.4
20180921121716 39 18 11.0 17.0 0.00 0.00 0.00 76 1011.3
20180921120216 39 12 10.0 19.0 0.00 0.00 0.00 76 1011.4
20180921114715 38 360 9.0 17.0 0.00 0.00 0.00 76 1011.2
20180921113217 39 355 11.0 20.0 0.00 0.00 0.00 75 1011.2
20180921111715 39 63 3.0 15.0 0.00 0.00 0.00 74 1011.0
20180921110212 40 11 10.0 21.0 0.00 0.00 0.00 74 1010.9
20180921104709 39 38 4.0 15.0 0.00 0.00 0.00 72 1010.9
20180921103210 39 32 7.0 12.0 0.00 0.00 0.00 74 1010.7
20180921101701 39 350 8.0 14.0 0.00 0.00 0.00 74 1010.4
20180921100158 38 34 3.0 13.0 0.00 0.00 0.00 76 1010.6
20180921094700 37 25 4.0 14.0 0.00 0.00 0.00 75 1010.6
20180921093159 38 46 5.0 14.0 0.00 0.00 0.00 75 1010.6
20180921091653 37 17 11.0 16.0 0.00 0.00 0.00 75 1010.4
20180921090148 37 15 8.0 19.0 0.00 0.00 0.00 76 1010.3
20180921084645 36 12 10.0 18.0 0.00 0.00 0.00 77 1010.2
20180921083143 36 355 15.0 24.0 0.00 0.00 0.00 77 1010.0
20180921081650 36 25 10.0 19.0 0.00 0.00 0.00 78 1010.3
20180921080140 36 11 14.0 20.0 0.00 0.00 0.00 79 1010.0
20180921074637 36 20 10.0 22.0 0.00 0.00 0.00 79 1010.1
20180921073135 36 16 16.0 23.0 0.00 0.00 0.00 80 1009.9
20180921071642 36 5 14.0 26.0 0.00 0.00 0.00 80 1010.0
20180921070133 36 17 14.0 23.0 0.00 0.00 0.00 80 1009.8
20180921064633 36 11 10.0 17.0 0.00 0.00 0.00 80 1009.8
20180921063132 36 23 11.0 16.0 0.00 0.00 0.00 81 1009.9
20180921061629 36 49 13.0 22.0 0.00 0.00 0.00 78 1009.8
20180921060231 36 15 14.0 21.0 0.00 0.00 0.00 80 1009.7